Terminal Aerodrome Forecast
Issued by NWS Rapid City, SD

Home | Current Version | Previous Version | Text Only | Print | Product List | Glossary Off
Versions: 1 2 3 4 5 6 7 8 9 10 11 12 13 14 15

000
FTUS43 KUNR 201734
TAFRAP
TAF
KRAP 201734Z 2018/2118 33011KT P6SM BKN150
     FM202200 33011KT P6SM BKN050=

USA.gov is the U.S. government's official web portal to all federal, state and local government web resources and services.